Time,TemperatureF,DewpointF,PressureIn,WindDirection,WindDirectionDegrees,WindSpeedMPH,WindSpeedGustMPH,Humidity,HourlyPrecipIn,Conditions,Clouds,dailyrainin,SoftwareType,DateUTC
2013-05-03 00:04:00,65.5,36.4,25.82,North,0,0.0,0.0,34,0.00,,---,0.00,VWS V13.01,2013-05-03 06:04:00,
2013-05-03 00:09:00,65.3,36.2,25.82,North,0,0.0,0.0,34,0.00,,---,0.00,VWS V13.01,2013-05-03 06:09:00,
2013-05-03 00:14:00,65.3,36.2,25.82,North,0,0.0,0.0,34,0.00,,---,0.00,VWS V13.01,2013-05-03 06:14:00,
2013-05-03 00:20:00,65.1,36.1,25.82,North,0,0.0,0.0,34,0.00,,---,0.00,VWS V13.01,2013-05-03 06:20:00,
2013-05-03 00:25:00,65.1,36.1,25.82,North,0,0.0,0.0,34,0.00,,---,0.00,VWS V13.01,2013-05-03 06:25:00,
2013-05-03 00:30:00,65.1,36.1,25.82,North,0,0.0,0.0,34,0.00,,---,0.00,VWS V13.01,2013-05-03 06:30:00,
2013-05-03 00:35:00,65.1,36.1,25.82,North,0,0.0,0.0,34,0.00,,---,0.00,VWS V13.01,2013-05-03 06:35:00,
2013-05-03 00:40:00,65.1,36.1,25.82,North,0,0.0,0.0,34,0.00,,---,0.00,VWS V13.01,2013-05-03 06:40:00,
2013-05-03 00:45:00,65.3,36.2,25.82,North,0,0.0,0.0,34,0.00,,---,0.00,VWS V13.01,2013-05-03 06:45:00,
2013-05-03 00:50:00,65.3,36.2,25.82,North,0,0.0,0.0,34,0.00,,---,0.00,VWS V13.01,2013-05-03 06:50:00,
2013-05-03 00:56:00,65.5,36.4,25.82,North,0,0.0,0.0,34,0.00,,---,0.00,VWS V13.01,2013-05-03 06:56:00,
2013-05-03 01:01:00,65.5,36.4,25.82,North,0,0.0,0.0,34,0.00,,---,0.00,VWS V13.01,2013-05-03 07:01:00,
2013-05-03 01:06:00,65.5,36.4,25.82,North,0,0.0,0.0,34,0.00,,---,0.00,VWS V13.01,2013-05-03 07:06:00,
2013-05-03 01:11:00,65.5,36.4,25.82,North,0,0.0,0.0,34,0.00,,---,0.00,VWS V13.01,2013-05-03 07:11:00,
2013-05-03 01:16:00,65.3,36.2,25.82,North,0,0.0,0.0,34,0.00,,---,0.00,VWS V13.01,2013-05-03 07:16:00,
2013-05-03 01:21:00,65.1,36.1,25.79,North,0,0.0,0.0,34,0.00,,---,0.00,VWS V13.01,2013-05-03 07:21:00,
2013-05-03 01:26:00,64.9,35.2,25.79,North,0,0.0,0.0,33,0.00,,---,0.00,VWS V13.01,2013-05-03 07:26:00,
2013-05-03 01:32:00,64.6,34.8,25.79,North,0,0.0,0.0,33,0.00,,---,0.00,VWS V13.01,2013-05-03 07:32:00,
2013-05-03 01:37:00,64.4,34.7,25.79,North,0,0.0,0.0,33,0.00,,---,0.00,VWS V13.01,2013-05-03 07:37:00,
2013-05-03 01:42:00,64.2,35.3,25.79,North,0,0.0,0.0,34,0.00,,---,0.00,VWS V13.01,2013-05-03 07:42:00,
2013-05-03 01:47:00,64.0,35.1,25.79,North,0,0.0,0.0,34,0.00,,---,0.00,VWS V13.01,2013-05-03 07:47:00,
2013-05-03 01:52:00,63.9,35.0,25.79,North,0,0.0,0.0,34,0.00,,---,0.00,VWS V13.01,2013-05-03 07:52:00,
2013-05-03 01:57:00,63.9,35.0,25.79,North,0,0.0,0.0,34,0.00,,---,0.00,VWS V13.01,2013-05-03 07:57:00,
2013-05-03 02:02:00,63.7,34.8,25.79,North,0,0.0,0.0,34,0.00,,---,0.00,VWS V13.01,2013-05-03 08:02:00,
2013-05-03 02:07:00,63.7,34.8,25.79,North,0,0.0,0.0,34,0.00,,---,0.00,VWS V13.01,2013-05-03 08:07:00,
2013-05-03 02:12:00,63.5,34.7,25.79,North,0,0.0,0.0,34,0.00,,---,0.00,VWS V13.01,2013-05-03 08:12:00,
2013-05-03 02:18:00,63.5,34.7,25.79,North,0,0.0,0.0,34,0.00,,---,0.00,VWS V13.01,2013-05-03 08:18:00,
2013-05-03 02:23:00,63.5,34.7,25.79,North,0,0.0,0.0,34,0.00,,---,0.00,VWS V13.01,2013-05-03 08:23:00,
2013-05-03 02:28:00,63.7,34.8,25.79,North,0,0.0,0.0,34,0.00,,---,0.00,VWS V13.01,2013-05-03 08:28:00,
2013-05-03 02:33:00,63.7,34.8,25.79,North,0,0.0,0.0,34,0.00,,---,0.00,VWS V13.01,2013-05-03 08:33:00,
2013-05-03 02:38:00,63.9,35.0,25.79,North,0,0.0,0.0,34,0.00,,---,0.00,VWS V13.01,2013-05-03 08:38:00,
2013-05-03 02:43:00,64.0,35.1,25.79,North,0,0.0,0.0,34,0.00,,---,0.00,VWS V13.01,2013-05-03 08:43:00,
2013-05-03 02:48:00,64.2,35.3,25.79,North,0,0.0,0.0,34,0.00,,---,0.00,VWS V13.01,2013-05-03 08:48:00,
2013-05-03 02:53:00,64.4,35.5,25.79,North,0,0.0,0.0,34,0.00,,---,0.00,VWS V13.01,2013-05-03 08:53:00,
2013-05-03 02:58:00,64.6,35.6,25.79,North,0,0.0,0.0,34,0.00,,---,0.00,VWS V13.01,2013-05-03 08:58:00,
2013-05-03 03:04:00,64.6,35.6,25.79,North,0,0.0,0.0,34,0.00,,---,0.00,VWS V13.01,2013-05-03 09:04:00,
2013-05-03 03:09:00,64.8,35.8,25.79,North,0,0.0,0.0,34,0.00,,---,0.00,VWS V13.01,2013-05-03 09:09:00,
2013-05-03 03:14:00,64.8,35.8,25.79,North,0,0.0,0.0,34,0.00,,---,0.00,VWS V13.01,2013-05-03 09:14:00,
2013-05-03 03:19:00,64.9,35.9,25.79,North,0,0.0,0.0,34,0.00,,---,0.00,VWS V13.01,2013-05-03 09:19:00,
2013-05-03 03:24:00,64.9,35.9,25.79,North,0,0.0,0.0,34,0.00,,---,0.00,VWS V13.01,2013-05-03 09:24:00,
2013-05-03 03:29:00,65.1,36.1,25.79,North,0,0.0,0.0,34,0.00,,---,0.00,VWS V13.01,2013-05-03 09:29:00,
2013-05-03 03:34:00,65.1,36.1,25.79,North,0,0.0,0.0,34,0.00,,---,0.00,VWS V13.01,2013-05-03 09:34:00,
2013-05-03 03:39:00,65.1,36.1,25.79,North,0,0.0,0.0,34,0.00,,---,0.00,VWS V13.01,2013-05-03 09:39:00,
2013-05-03 03:44:00,65.1,36.1,25.79,North,0,0.0,0.0,34,0.00,,---,0.00,VWS V13.01,2013-05-03 09:44:00,
2013-05-03 03:49:00,65.1,36.1,25.79,North,0,0.0,0.0,34,0.00,,---,0.00,VWS V13.01,2013-05-03 09:49:00,
2013-05-03 03:54:00,64.9,35.9,25.79,North,0,0.0,0.0,34,0.00,,---,0.00,VWS V13.01,2013-05-03 09:54:00,
2013-05-03 03:59:00,64.8,35.8,25.79,North,0,0.0,0.0,34,0.00,,---,0.00,VWS V13.01,2013-05-03 09:59:00,
2013-05-03 04:04:00,64.6,35.6,25.79,North,0,0.0,0.0,34,0.00,,---,0.00,VWS V13.01,2013-05-03 10:04:00,
2013-05-03 04:09:00,64.2,35.3,25.79,North,0,0.0,0.0,34,0.00,,---,0.00,VWS V13.01,2013-05-03 10:09:00,
2013-05-03 04:14:00,64.0,35.1,25.79,North,0,0.0,0.0,34,0.00,,---,0.00,VWS V13.01,2013-05-03 10:14:00,
2013-05-03 04:19:00,63.7,34.8,25.79,North,0,0.0,0.0,34,0.00,,---,0.00,VWS V13.01,2013-05-03 10:19:00,
2013-05-03 04:24:00,63.5,34.7,25.79,North,0,0.0,0.0,34,0.00,,---,0.00,VWS V13.01,2013-05-03 10:24:00,
2013-05-03 04:29:00,63.3,34.5,25.79,North,0,0.0,0.0,34,0.00,,---,0.00,VWS V13.01,2013-05-03 10:29:00,
2013-05-03 04:34:00,63.1,34.3,25.79,North,0,0.0,0.0,34,0.00,,---,0.00,VWS V13.01,2013-05-03 10:34:00,
2013-05-03 04:39:00,63.1,34.3,25.79,North,0,0.0,0.0,34,0.00,,---,0.00,VWS V13.01,2013-05-03 10:39:00,
2013-05-03 04:44:00,63.0,34.2,25.79,North,0,0.0,0.0,34,0.00,,---,0.00,VWS V13.01,2013-05-03 10:44:00,
2013-05-03 04:49:00,63.0,34.2,25.79,North,0,0.0,0.0,34,0.00,,---,0.00,VWS V13.01,2013-05-03 10:49:00,
2013-05-03 04:54:00,63.0,34.2,25.79,North,0,0.0,0.0,34,0.00,,---,0.00,VWS V13.01,2013-05-03 10:54:00,
2013-05-03 04:59:00,62.8,34.0,25.79,North,0,0.0,0.0,34,0.00,,---,0.00,VWS V13.01,2013-05-03 10:59:00,
2013-05-03 05:04:00,62.6,33.9,25.79,North,0,0.0,0.0,34,0.00,,---,0.00,VWS V13.01,2013-05-03 11:04:00,
2013-05-03 05:09:00,62.6,33.9,25.79,North,0,0.0,0.0,34,0.00,,---,0.00,VWS V13.01,2013-05-03 11:09:00,
2013-05-03 05:14:00,62.6,33.9,25.79,North,0,0.0,0.0,34,0.00,,---,0.00,VWS V13.01,2013-05-03 11:14:00,
2013-05-03 05:19:00,62.6,33.9,25.79,North,0,0.0,0.0,34,0.00,,---,0.00,VWS V13.01,2013-05-03 11:19:00,
2013-05-03 05:24:00,62.6,33.9,25.82,North,0,0.0,0.0,34,0.00,,---,0.00,VWS V13.01,2013-05-03 11:24:00,
2013-05-03 05:29:00,62.8,34.0,25.82,North,0,0.0,0.0,34,0.00,,---,0.00,VWS V13.01,2013-05-03 11:29:00,
2013-05-03 05:34:00,63.0,34.2,25.82,North,0,0.0,0.0,34,0.00,,---,0.00,VWS V13.01,2013-05-03 11:34:00,
2013-05-03 05:39:00,63.1,34.3,25.82,North,0,0.0,0.0,34,0.00,,---,0.00,VWS V13.01,2013-05-03 11:39:00,
2013-05-03 05:44:00,63.5,34.7,25.82,North,0,0.0,0.0,34,0.00,,---,0.00,VWS V13.01,2013-05-03 11:44:00,
2013-05-03 05:49:00,63.9,35.0,25.82,North,0,0.0,0.0,34,0.00,,---,0.00,VWS V13.01,2013-05-03 11:49:00,
2013-05-03 05:54:00,64.0,35.1,25.82,North,0,0.0,0.0,34,0.00,,---,0.00,VWS V13.01,2013-05-03 11:54:00,
2013-05-03 05:59:00,64.4,35.5,25.82,North,0,0.0,0.0,34,0.00,,---,0.00,VWS V13.01,2013-05-03 11:59:00,
2013-05-03 06:04:00,64.6,35.6,25.82,North,0,0.0,0.0,34,0.00,,---,0.00,VWS V13.01,2013-05-03 12:04:00,
2013-05-03 06:09:00,64.8,35.8,25.82,North,0,0.0,0.0,34,0.00,,---,0.00,VWS V13.01,2013-05-03 12:09:00,
2013-05-03 06:14:00,65.1,36.1,25.82,North,0,0.0,0.0,34,0.00,,---,0.00,VWS V13.01,2013-05-03 12:14:00,
2013-05-03 06:19:00,65.3,36.2,25.82,North,0,0.0,0.0,34,0.00,,---,0.00,VWS V13.01,2013-05-03 12:19:00,
2013-05-03 06:24:00,65.5,36.4,25.82,North,0,0.0,0.0,34,0.00,,---,0.00,VWS V13.01,2013-05-03 12:24:00,
2013-05-03 06:29:00,65.7,36.6,25.82,North,0,0.0,0.0,34,0.00,,---,0.00,VWS V13.01,2013-05-03 12:29:00,
2013-05-03 06:34:00,65.7,36.6,25.82,North,0,0.0,0.0,34,0.00,,---,0.00,VWS V13.01,2013-05-03 12:34:00,
2013-05-03 06:39:00,65.8,36.7,25.82,North,0,0.0,0.0,34,0.00,,---,0.00,VWS V13.01,2013-05-03 12:39:00,
2013-05-03 06:44:00,66.2,37.0,25.82,North,0,0.0,0.0,34,0.00,,---,0.00,VWS V13.01,2013-05-03 12:44:00,
2013-05-03 06:49:00,66.4,37.2,25.82,North,0,0.0,0.0,34,0.00,,---,0.00,VWS V13.01,2013-05-03 12:49:00,
2013-05-03 06:54:00,66.7,37.5,25.85,North,0,0.0,0.0,34,0.00,,---,0.00,VWS V13.01,2013-05-03 12:54:00,
2013-05-03 06:59:00,67.1,37.8,25.85,North,0,0.0,0.0,34,0.00,,---,0.00,VWS V13.01,2013-05-03 12:59:00,
2013-05-03 07:04:00,67.5,37.4,25.85,North,0,0.0,0.0,33,0.00,,---,0.00,VWS V13.01,2013-05-03 13:04:00,
2013-05-03 07:09:00,68.0,37.8,25.85,North,0,0.0,0.0,33,0.00,,---,0.00,VWS V13.01,2013-05-03 13:09:00,
2013-05-03 07:14:00,68.2,38.0,25.85,North,0,0.0,0.0,33,0.00,,---,0.00,VWS V13.01,2013-05-03 13:14:00,
2013-05-03 07:19:00,68.9,38.6,25.85,North,0,0.0,0.0,33,0.00,,---,0.00,VWS V13.01,2013-05-03 13:19:00,
2013-05-03 07:24:00,69.4,39.1,25.85,North,0,0.0,0.0,33,0.00,,---,0.00,VWS V13.01,2013-05-03 13:24:00,
2013-05-03 07:29:00,69.8,38.6,25.85,North,0,0.0,0.0,32,0.00,,---,0.00,VWS V13.01,2013-05-03 13:29:00,
2013-05-03 07:34:00,70.2,39.0,25.85,North,0,0.0,0.0,32,0.00,,---,0.00,VWS V13.01,2013-05-03 13:34:00,
2013-05-03 07:39:00,70.7,39.4,25.85,North,0,0.0,0.0,32,0.00,,---,0.00,VWS V13.01,2013-05-03 13:39:00,
2013-05-03 07:44:00,71.2,38.2,25.85,North,0,0.0,0.0,30,0.00,,---,0.00,VWS V13.01,2013-05-03 13:44:00,
2013-05-03 07:49:00,71.4,35.7,25.85,North,0,0.0,0.0,27,0.00,,---,0.00,VWS V13.01,2013-05-03 13:49:00,
2013-05-03 07:54:00,71.8,35.1,25.88,North,0,0.0,0.0,26,0.00,,---,0.00,VWS V13.01,2013-05-03 13:54:00,
2013-05-03 07:59:00,71.8,34.1,25.88,North,0,0.0,0.0,25,0.00,,---,0.00,VWS V13.01,2013-05-03 13:59:00,
2013-05-03 08:04:00,71.8,33.1,25.88,North,0,0.0,0.0,24,0.00,,---,0.00,VWS V13.01,2013-05-03 14:04:00,
2013-05-03 08:09:00,71.8,33.1,25.88,North,0,0.0,0.0,24,0.00,,---,0.00,VWS V13.01,2013-05-03 14:09:00,
2013-05-03 08:14:00,71.6,31.9,25.88,North,0,0.0,0.0,23,0.00,,---,0.00,VWS V13.01,2013-05-03 14:14:00,
2013-05-03 08:19:00,71.4,32.8,25.88,North,0,0.0,0.0,24,0.00,,---,0.00,VWS V13.01,2013-05-03 14:19:00,
2013-05-03 08:24:00,71.4,32.8,25.91,North,0,0.0,0.0,24,0.00,,---,0.00,VWS V13.01,2013-05-03 14:24:00,
2013-05-03 08:29:00,71.1,32.5,25.91,North,0,0.0,0.0,24,0.00,,---,0.00,VWS V13.01,2013-05-03 14:29:00,
2013-05-03 08:34:00,70.9,32.3,25.91,North,0,0.0,0.0,24,0.00,,---,0.00,VWS V13.01,2013-05-03 14:34:00,
2013-05-03 08:39:00,70.9,32.3,25.88,North,0,0.0,0.0,24,0.00,,---,0.00,VWS V13.01,2013-05-03 14:39:00,
2013-05-03 08:44:00,70.9,32.3,25.88,North,0,0.0,0.0,24,0.00,,---,0.00,VWS V13.01,2013-05-03 14:44:00,
2013-05-03 08:49:00,71.2,32.6,25.88,North,0,0.0,0.0,24,0.00,,---,0.00,VWS V13.01,2013-05-03 14:49:00,
2013-05-03 08:54:00,71.6,32.9,25.88,North,0,0.0,0.0,24,0.00,,---,0.00,VWS V13.01,2013-05-03 14:54:00,
2013-05-03 08:59:00,72.0,33.2,25.88,North,0,0.0,0.0,24,0.00,,---,0.00,VWS V13.01,2013-05-03 14:59:00,
2013-05-03 09:04:00,72.3,32.5,25.88,North,0,0.0,0.0,23,0.00,,---,0.00,VWS V13.01,2013-05-03 15:04:00,
2013-05-03 09:09:00,72.7,32.8,25.91,North,0,0.0,0.0,23,0.00,,---,0.00,VWS V13.01,2013-05-03 15:09:00,
2013-05-03 09:14:00,72.7,32.8,25.91,North,0,0.0,0.0,23,0.00,,---,0.00,VWS V13.01,2013-05-03 15:14:00,
2013-05-03 09:19:00,72.7,32.8,25.91,North,0,0.0,0.0,23,0.00,,---,0.00,VWS V13.01,2013-05-03 15:19:00,
2013-05-03 09:24:00,72.7,32.8,25.91,North,0,0.0,0.0,23,0.00,,---,0.00,VWS V13.01,2013-05-03 15:24:00,
2013-05-03 09:29:00,72.9,32.9,25.91,North,0,0.0,0.0,23,0.00,,---,0.00,VWS V13.01,2013-05-03 15:29:00,
2013-05-03 09:34:00,73.0,33.1,25.91,North,0,0.0,0.0,23,0.00,,---,0.00,VWS V13.01,2013-05-03 15:34:00,
2013-05-03 09:39:00,72.7,32.8,25.91,North,0,0.0,0.0,23,0.00,,---,0.00,VWS V13.01,2013-05-03 15:39:00,
2013-05-03 09:44:00,72.5,32.6,25.91,North,0,0.0,0.0,23,0.00,,---,0.00,VWS V13.01,2013-05-03 15:44:00,
2013-05-03 09:49:00,72.5,32.6,25.91,North,0,0.0,0.0,23,0.00,,---,0.00,VWS V13.01,2013-05-03 15:49:00,
2013-05-03 09:54:00,72.3,32.5,25.91,North,0,0.0,0.0,23,0.00,,---,0.00,VWS V13.01,2013-05-03 15:54:00,
2013-05-03 09:59:00,72.5,32.6,25.91,North,0,0.0,0.0,23,0.00,,---,0.00,VWS V13.01,2013-05-03 15:59:00,
2013-05-03 10:04:00,72.9,32.9,25.91,North,0,0.0,0.0,23,0.00,,---,0.00,VWS V13.01,2013-05-03 16:04:00,
2013-05-03 10:09:00,73.2,33.2,25.91,North,0,0.0,0.0,23,0.00,,---,0.00,VWS V13.01,2013-05-03 16:09:00,
2013-05-03 10:14:00,73.6,32.4,25.91,North,0,0.0,0.0,22,0.00,,---,0.00,VWS V13.01,2013-05-03 16:14:00,
2013-05-03 10:19:00,73.9,32.7,25.91,North,0,0.0,0.0,22,0.00,,---,0.00,VWS V13.01,2013-05-03 16:19:00,
2013-05-03 10:24:00,74.5,33.2,25.91,North,0,0.0,0.0,22,0.00,,---,0.00,VWS V13.01,2013-05-03 16:24:00,
2013-05-03 10:29:00,75.2,32.6,25.91,North,0,0.0,0.0,21,0.00,,---,0.00,VWS V13.01,2013-05-03 16:29:00,
2013-05-03 10:34:00,75.7,33.1,25.91,North,0,0.0,0.0,21,0.00,,---,0.00,VWS V13.01,2013-05-03 16:34:00,
2013-05-03 10:39:00,75.9,33.2,25.91,North,0,0.0,0.0,21,0.00,,---,0.00,VWS V13.01,2013-05-03 16:39:00,
2013-05-03 10:44:00,75.9,33.2,25.91,North,0,0.0,0.0,21,0.00,,---,0.00,VWS V13.01,2013-05-03 16:44:00,
2013-05-03 10:49:00,75.7,33.1,25.91,North,0,0.0,0.0,21,0.00,,---,0.00,VWS V13.01,2013-05-03 16:49:00,
2013-05-03 10:54:00,76.1,33.4,25.91,North,0,0.0,0.0,21,0.00,,---,0.00,VWS V13.01,2013-05-03 16:54:00,
2013-05-03 10:59:00,76.3,33.5,25.91,North,0,0.0,0.0,21,0.00,,---,0.00,VWS V13.01,2013-05-03 16:59:00,
2013-05-03 11:04:00,76.8,34.0,25.91,North,0,0.0,0.0,21,0.00,,---,0.00,VWS V13.01,2013-05-03 17:04:00,
2013-05-03 11:09:00,77.0,32.9,25.91,North,0,0.0,0.0,20,0.00,,---,0.00,VWS V13.01,2013-05-03 17:09:00,
2013-05-03 11:14:00,77.4,33.2,25.91,North,0,0.0,0.0,20,0.00,,---,0.00,VWS V13.01,2013-05-03 17:14:00,
2013-05-03 11:19:00,77.4,33.2,25.91,North,0,0.0,0.0,20,0.00,,---,0.00,VWS V13.01,2013-05-03 17:19:00,
2013-05-03 11:24:00,76.8,32.8,25.88,North,0,0.0,0.0,20,0.00,,---,0.00,VWS V13.01,2013-05-03 17:24:00,
2013-05-03 11:29:00,76.8,34.0,25.88,North,0,0.0,0.0,21,0.00,,---,0.00,VWS V13.01,2013-05-03 17:29:00,
2013-05-03 11:34:00,77.4,33.2,25.88,North,0,0.0,0.0,20,0.00,,---,0.00,VWS V13.01,2013-05-03 17:34:00,
2013-05-03 11:39:00,77.5,33.3,25.88,North,0,0.0,0.0,20,0.00,,---,0.00,VWS V13.01,2013-05-03 17:39:00,
2013-05-03 11:44:00,77.5,33.3,25.88,North,0,0.0,0.0,20,0.00,,---,0.00,VWS V13.01,2013-05-03 17:44:00,
2013-05-03 11:49:00,77.4,33.2,25.88,North,0,0.0,0.0,20,0.00,,---,0.00,VWS V13.01,2013-05-03 17:49:00,
2013-05-03 11:54:00,76.8,34.0,25.88,North,0,0.0,0.0,21,0.00,,---,0.00,VWS V13.01,2013-05-03 17:54:00,
2013-05-03 11:59:00,76.1,33.4,25.88,North,0,0.0,0.0,21,0.00,,---,0.00,VWS V13.01,2013-05-03 17:59:00,
2013-05-03 12:04:00,75.7,33.1,25.88,North,0,0.0,0.0,21,0.00,,---,0.00,VWS V13.01,2013-05-03 18:04:00,
2013-05-03 12:09:00,75.7,33.1,25.88,North,0,0.0,0.0,21,0.00,,---,0.00,VWS V13.01,2013-05-03 18:09:00,
2013-05-03 12:14:00,76.1,33.4,25.88,North,0,0.0,0.0,21,0.00,,---,0.00,VWS V13.01,2013-05-03 18:14:00,
2013-05-03 12:19:00,76.5,33.7,25.88,North,0,0.0,0.0,21,0.00,,---,0.00,VWS V13.01,2013-05-03 18:19:00,
2013-05-03 12:24:00,76.5,33.7,25.88,North,0,0.0,0.0,21,0.00,,---,0.00,VWS V13.01,2013-05-03 18:24:00,
2013-05-03 12:29:00,76.5,33.7,25.88,North,0,0.0,0.0,21,0.00,,---,0.00,VWS V13.01,2013-05-03 18:29:00,
2013-05-03 12:34:00,75.7,33.1,25.88,North,0,0.0,0.0,21,0.00,,---,0.00,VWS V13.01,2013-05-03 18:34:00,
2013-05-03 12:39:00,75.4,32.8,25.85,North,0,0.0,0.0,21,0.00,,---,0.00,VWS V13.01,2013-05-03 18:39:00,
2013-05-03 12:44:00,75.6,32.9,25.85,North,0,0.0,0.0,21,0.00,,---,0.00,VWS V13.01,2013-05-03 18:44:00,
2013-05-03 12:49:00,76.5,33.7,25.85,North,0,0.0,0.0,21,0.00,,---,0.00,VWS V13.01,2013-05-03 18:49:00,
2013-05-03 12:54:00,77.7,34.7,25.82,North,0,0.0,0.0,21,0.00,,---,0.00,VWS V13.01,2013-05-03 18:54:00,
2013-05-03 12:59:00,79.0,34.5,25.82,North,0,0.0,0.0,20,0.00,,---,0.00,VWS V13.01,2013-05-03 18:59:00,
2013-05-03 13:04:00,79.7,35.1,25.82,North,0,0.0,0.0,20,0.00,,---,0.00,VWS V13.01,2013-05-03 19:04:00,
2013-05-03 13:09:00,78.4,34.1,25.85,North,0,0.0,0.0,20,0.00,,---,0.00,VWS V13.01,2013-05-03 19:09:00,
2013-05-03 13:14:00,76.5,32.5,25.85,North,0,0.0,0.0,20,0.00,,---,0.00,VWS V13.01,2013-05-03 19:14:00,
2013-05-03 13:19:00,74.8,32.3,25.85,North,0,0.0,0.0,21,0.00,,---,0.00,VWS V13.01,2013-05-03 19:19:00,
2013-05-03 13:24:00,74.1,31.7,25.85,North,0,0.0,0.0,21,0.00,,---,0.00,VWS V13.01,2013-05-03 19:24:00,
2013-05-03 13:29:00,74.5,32.0,25.85,North,0,0.0,0.0,21,0.00,,---,0.00,VWS V13.01,2013-05-03 19:29:00,
2013-05-03 13:34:00,75.4,32.8,25.85,North,0,0.0,0.0,21,0.00,,---,0.00,VWS V13.01,2013-05-03 19:34:00,
2013-05-03 13:39:00,76.6,33.8,25.82,North,0,0.0,0.0,21,0.00,,---,0.00,VWS V13.01,2013-05-03 19:39:00,
2013-05-03 13:44:00,78.3,33.9,25.82,North,0,0.0,0.0,20,0.00,,---,0.00,VWS V13.01,2013-05-03 19:44:00,
2013-05-03 13:49:00,79.9,35.3,25.82,North,0,0.0,0.0,20,0.00,,---,0.00,VWS V13.01,2013-05-03 19:49:00,
2013-05-03 13:54:00,80.6,34.6,25.85,North,0,0.0,0.0,19,0.00,,---,0.00,VWS V13.01,2013-05-03 19:54:00,
2013-05-03 13:59:00,81.0,32.1,25.85,North,0,0.0,0.0,17,0.00,,---,0.00,VWS V13.01,2013-05-03 19:59:00,
2013-05-03 14:04:00,80.4,31.7,25.85,North,0,0.0,0.0,17,0.00,,---,0.00,VWS V13.01,2013-05-03 20:04:00,
2013-05-03 14:09:00,79.5,30.9,25.85,North,0,0.0,0.0,17,0.00,,---,0.00,VWS V13.01,2013-05-03 20:09:00,
2013-05-03 14:14:00,79.2,30.6,25.85,North,0,0.0,0.0,17,0.00,,---,0.00,VWS V13.01,2013-05-03 20:14:00,
2013-05-03 14:19:00,78.4,31.5,25.85,North,0,0.0,0.0,18,0.00,,---,0.00,VWS V13.01,2013-05-03 20:19:00,
2013-05-03 14:24:00,77.7,30.9,25.82,North,0,0.0,0.0,18,0.00,,---,0.00,VWS V13.01,2013-05-03 20:24:00,
2013-05-03 14:29:00,76.8,30.1,25.82,North,0,0.0,0.0,18,0.00,,---,0.00,VWS V13.01,2013-05-03 20:29:00,
2013-05-03 14:34:00,76.8,32.8,25.82,North,0,0.0,0.0,20,0.00,,---,0.00,VWS V13.01,2013-05-03 20:34:00,
2013-05-03 14:39:00,76.6,32.6,25.82,North,0,0.0,0.0,20,0.00,,---,0.00,VWS V13.01,2013-05-03 20:39:00,
2013-05-03 14:44:00,76.5,32.5,25.82,North,0,0.0,0.0,20,0.00,,---,0.00,VWS V13.01,2013-05-03 20:44:00,
2013-05-03 14:49:00,76.1,32.2,25.82,North,0,0.0,0.0,20,0.00,,---,0.00,VWS V13.01,2013-05-03 20:49:00,
2013-05-03 14:54:00,75.9,32.0,25.79,North,0,0.0,0.0,20,0.00,,---,0.00,VWS V13.01,2013-05-03 20:54:00,
2013-05-03 14:59:00,75.7,31.9,25.79,North,0,0.0,0.0,20,0.00,,---,0.00,VWS V13.01,2013-05-03 20:59:00,
2013-05-03 15:04:00,75.9,32.0,25.79,North,0,0.0,0.0,20,0.00,,---,0.00,VWS V13.01,2013-05-03 21:04:00,
2013-05-03 15:09:00,75.9,32.0,25.79,North,0,0.0,0.0,20,0.00,,---,0.00,VWS V13.01,2013-05-03 21:09:00,
2013-05-03 15:14:00,75.6,31.7,25.79,North,0,0.0,0.0,20,0.00,,---,0.00,VWS V13.01,2013-05-03 21:14:00,
2013-05-03 15:19:00,74.5,32.0,25.79,North,0,0.0,0.0,21,0.00,,---,0.00,VWS V13.01,2013-05-03 21:19:00,
2013-05-03 15:24:00,73.8,31.4,25.79,North,0,0.0,0.0,21,0.00,,---,0.00,VWS V13.01,2013-05-03 21:24:00,
2013-05-03 15:29:00,73.4,31.1,25.79,North,0,0.0,0.0,21,0.00,,---,0.00,VWS V13.01,2013-05-03 21:29:00,
2013-05-03 15:34:00,73.6,31.3,25.79,North,0,0.0,0.0,21,0.00,,---,0.00,VWS V13.01,2013-05-03 21:34:00,
2013-05-03 15:39:00,73.2,32.1,25.82,North,0,0.0,0.0,22,0.00,,---,0.00,VWS V13.01,2013-05-03 21:39:00,
2013-05-03 15:44:00,72.7,31.7,25.82,North,0,0.0,0.0,22,0.00,,---,0.00,VWS V13.01,2013-05-03 21:44:00,
2013-05-03 15:49:00,72.1,31.2,25.82,North,0,0.0,0.0,22,0.00,,---,0.00,VWS V13.01,2013-05-03 21:49:00,
2013-05-03 15:54:00,72.1,31.2,25.82,North,0,0.0,0.0,22,0.00,,---,0.00,VWS V13.01,2013-05-03 21:54:00,
2013-05-03 15:59:00,72.1,31.2,25.82,North,0,0.0,0.0,22,0.00,,---,0.00,VWS V13.01,2013-05-03 21:59:00,
2013-05-03 16:04:00,72.0,31.1,25.82,North,0,0.0,0.0,22,0.00,,---,0.00,VWS V13.01,2013-05-03 22:04:00,
2013-05-03 16:09:00,72.0,31.1,25.82,North,0,0.0,0.0,22,0.00,,---,0.00,VWS V13.01,2013-05-03 22:09:00,
2013-05-03 16:14:00,71.6,30.8,25.82,North,0,0.0,0.0,22,0.00,,---,0.00,VWS V13.01,2013-05-03 22:14:00,
2013-05-03 16:19:00,71.4,30.6,25.82,North,0,0.0,0.0,22,0.00,,---,0.00,VWS V13.01,2013-05-03 22:19:00,
2013-05-03 16:24:00,71.2,30.5,25.82,North,0,0.0,0.0,22,0.00,,---,0.00,VWS V13.01,2013-05-03 22:24:00,
2013-05-03 16:29:00,70.9,30.2,25.82,North,0,0.0,0.0,22,0.00,,---,0.00,VWS V13.01,2013-05-03 22:29:00,
2013-05-03 16:34:00,70.7,30.0,25.82,North,0,0.0,0.0,22,0.00,,---,0.00,VWS V13.01,2013-05-03 22:34:00,
2013-05-03 16:39:00,70.5,29.9,25.82,North,0,0.0,0.0,22,0.00,,---,0.00,VWS V13.01,2013-05-03 22:39:00,
2013-05-03 16:44:00,70.2,29.6,25.82,North,0,0.0,0.0,22,0.00,,---,0.00,VWS V13.01,2013-05-03 22:44:00,
2013-05-03 16:49:00,70.2,30.7,25.82,North,0,0.0,0.0,23,0.00,,---,0.00,VWS V13.01,2013-05-03 22:49:00,
2013-05-03 16:54:00,70.0,30.5,25.82,North,0,0.0,0.0,23,0.00,,---,0.00,VWS V13.01,2013-05-03 22:54:00,
2013-05-03 16:59:00,69.6,30.2,25.82,North,0,0.0,0.0,23,0.00,,---,0.00,VWS V13.01,2013-05-03 22:59:00,
2013-05-03 17:04:00,69.4,30.1,25.82,North,0,0.0,0.0,23,0.00,,---,0.00,VWS V13.01,2013-05-03 23:04:00,
2013-05-03 17:09:00,69.4,30.1,25.82,North,0,0.0,0.0,23,0.00,,---,0.00,VWS V13.01,2013-05-03 23:09:00,
2013-05-03 17:14:00,69.4,30.1,25.82,North,0,0.0,0.0,23,0.00,,---,0.00,VWS V13.01,2013-05-03 23:14:00,
2013-05-03 17:19:00,69.4,31.1,25.82,North,0,0.0,0.0,24,0.00,,---,0.00,VWS V13.01,2013-05-03 23:19:00,
2013-05-03 17:24:00,69.4,31.1,25.82,North,0,0.0,0.0,24,0.00,,---,0.00,VWS V13.01,2013-05-03 23:24:00,
2013-05-03 17:29:00,69.4,31.1,25.82,North,0,0.0,0.0,24,0.00,,---,0.00,VWS V13.01,2013-05-03 23:29:00,
2013-05-03 17:34:00,69.3,31.0,25.82,North,0,0.0,0.0,24,0.00,,---,0.00,VWS V13.01,2013-05-03 23:34:00,
2013-05-03 17:39:00,69.3,31.0,25.82,North,0,0.0,0.0,24,0.00,,---,0.00,VWS V13.01,2013-05-03 23:39:00,
2013-05-03 17:44:00,68.9,30.6,25.82,North,0,0.0,0.0,24,0.00,,---,0.00,VWS V13.01,2013-05-03 23:44:00,
2013-05-03 17:49:00,68.9,30.6,25.82,North,0,0.0,0.0,24,0.00,,---,0.00,VWS V13.01,2013-05-03 23:49:00,
2013-05-03 17:54:00,68.7,30.5,25.82,North,0,0.0,0.0,24,0.00,,---,0.00,VWS V13.01,2013-05-03 23:54:00,
2013-05-03 17:59:00,68.7,31.5,25.82,North,0,0.0,0.0,25,0.00,,---,0.00,VWS V13.01,2013-05-03 23:59:00,
2013-05-03 18:04:00,68.5,31.4,25.82,North,0,0.0,0.0,25,0.00,,---,0.00,VWS V13.01,2013-05-04 00:04:00,
2013-05-03 18:09:00,68.4,32.2,25.82,North,0,0.0,0.0,26,0.00,,---,0.00,VWS V13.01,2013-05-04 00:09:00,
2013-05-03 18:14:00,68.2,32.0,25.82,North,0,0.0,0.0,26,0.00,,---,0.00,VWS V13.01,2013-05-04 00:14:00,
2013-05-03 18:19:00,67.8,32.7,25.82,North,0,0.0,0.0,27,0.00,,---,0.00,VWS V13.01,2013-05-04 00:19:00,
2013-05-03 18:24:00,67.6,33.4,25.79,North,0,0.0,0.0,28,0.00,,---,0.00,VWS V13.01,2013-05-04 00:24:00,
2013-05-03 18:29:00,67.6,33.4,25.79,North,0,0.0,0.0,28,0.00,,---,0.00,VWS V13.01,2013-05-04 00:29:00,
2013-05-03 18:34:00,67.8,33.5,25.79,North,0,0.0,0.0,28,0.00,,---,0.00,VWS V13.01,2013-05-04 00:34:00,
2013-05-03 18:39:00,67.8,33.5,25.82,North,0,0.0,0.0,28,0.00,,---,0.00,VWS V13.01,2013-05-04 00:39:00,
2013-05-03 18:44:00,67.8,34.4,25.82,North,0,0.0,0.0,29,0.00,,---,0.00,VWS V13.01,2013-05-04 00:44:00,
2013-05-03 18:49:00,67.6,34.3,25.82,North,0,0.0,0.0,29,0.00,,---,0.00,VWS V13.01,2013-05-04 00:49:00,
2013-05-03 18:54:00,67.5,35.0,25.82,North,0,0.0,0.0,30,0.00,,---,0.00,VWS V13.01,2013-05-04 00:54:00,
2013-05-03 18:59:00,67.3,35.6,25.82,North,0,0.0,0.0,31,0.00,,---,0.00,VWS V13.01,2013-05-04 00:59:00,
2013-05-03 19:04:00,67.3,35.6,25.82,North,0,0.0,0.0,31,0.00,,---,0.00,VWS V13.01,2013-05-04 01:04:00,
2013-05-03 19:09:00,67.1,35.5,25.82,North,0,0.0,0.0,31,0.00,,---,0.00,VWS V13.01,2013-05-04 01:09:00,
2013-05-03 19:14:00,67.1,36.3,25.82,North,0,0.0,0.0,32,0.00,,---,0.00,VWS V13.01,2013-05-04 01:14:00,
2013-05-03 19:19:00,67.1,36.3,25.82,North,0,0.0,0.0,32,0.00,,---,0.00,VWS V13.01,2013-05-04 01:19:00,
2013-05-03 19:24:00,67.1,36.3,25.82,North,0,0.0,0.0,32,0.00,,---,0.00,VWS V13.01,2013-05-04 01:24:00,
2013-05-03 19:29:00,66.9,36.1,25.82,North,0,0.0,0.0,32,0.00,,---,0.00,VWS V13.01,2013-05-04 01:29:00,
2013-05-03 19:34:00,66.9,36.1,25.82,North,0,0.0,0.0,32,0.00,,---,0.00,VWS V13.01,2013-05-04 01:34:00,
2013-05-03 19:39:00,67.1,37.1,25.85,North,0,0.0,0.0,33,0.00,,---,0.00,VWS V13.01,2013-05-04 01:39:00,
2013-05-03 19:44:00,68.2,35.6,25.85,North,0,0.0,0.0,30,0.00,,---,0.00,VWS V13.01,2013-05-04 01:44:00,
2013-05-03 19:49:00,68.5,32.3,25.85,North,0,0.0,0.0,26,0.00,,---,0.00,VWS V13.01,2013-05-04 01:49:00,
2013-05-03 19:54:00,69.4,31.1,25.85,North,0,0.0,0.0,24,0.00,,---,0.00,VWS V13.01,2013-05-04 01:54:00,
2013-05-03 19:59:00,69.6,30.2,25.85,North,0,0.0,0.0,23,0.00,,---,0.00,VWS V13.01,2013-05-04 01:59:00,
2013-05-03 20:04:00,69.8,30.4,25.85,North,0,0.0,0.0,23,0.00,,---,0.00,VWS V13.01,2013-05-04 02:04:00,
2013-05-03 20:09:00,70.0,29.4,25.85,North,0,0.0,0.0,22,0.00,,---,0.00,VWS V13.01,2013-05-04 02:09:00,
2013-05-03 20:14:00,70.0,29.4,25.85,North,0,0.0,0.0,22,0.00,,---,0.00,VWS V13.01,2013-05-04 02:14:00,
2013-05-03 20:19:00,69.8,29.3,25.85,North,0,0.0,0.0,22,0.00,,---,0.00,VWS V13.01,2013-05-04 02:19:00,
2013-05-03 20:24:00,69.6,29.1,25.85,North,0,0.0,0.0,22,0.00,,---,0.00,VWS V13.01,2013-05-04 02:24:00,
2013-05-03 20:29:00,69.6,29.1,25.85,North,0,0.0,0.0,22,0.00,,---,0.00,VWS V13.01,2013-05-04 02:29:00,
2013-05-03 20:34:00,69.6,29.1,25.85,North,0,0.0,0.0,22,0.00,,---,0.00,VWS V13.01,2013-05-04 02:34:00,
2013-05-03 20:39:00,69.4,29.0,25.85,North,0,0.0,0.0,22,0.00,,---,0.00,VWS V13.01,2013-05-04 02:39:00,
2013-05-03 20:44:00,69.3,28.8,25.85,North,0,0.0,0.0,22,0.00,,---,0.00,VWS V13.01,2013-05-04 02:44:00,
2013-05-03 20:49:00,69.4,29.0,25.85,North,0,0.0,0.0,22,0.00,,---,0.00,VWS V13.01,2013-05-04 02:49:00,
2013-05-03 20:54:00,69.8,29.3,25.85,North,0,0.0,0.0,22,0.00,,---,0.00,VWS V13.01,2013-05-04 02:54:00,
2013-05-03 20:59:00,70.0,29.4,25.85,North,0,0.0,0.0,22,0.00,,---,0.00,VWS V13.01,2013-05-04 02:59:00,
2013-05-03 21:04:00,70.2,29.6,25.85,North,0,0.0,0.0,22,0.00,,---,0.00,VWS V13.01,2013-05-04 03:04:00,
2013-05-03 21:09:00,70.2,29.6,25.85,North,0,0.0,0.0,22,0.00,,---,0.00,VWS V13.01,2013-05-04 03:09:00,
2013-05-03 21:14:00,70.2,29.6,25.85,North,0,0.0,0.0,22,0.00,,---,0.00,VWS V13.01,2013-05-04 03:14:00,
2013-05-03 21:19:00,70.0,29.4,25.85,North,0,0.0,0.0,22,0.00,,---,0.00,VWS V13.01,2013-05-04 03:19:00,
2013-05-03 21:24:00,69.8,29.3,25.82,North,0,0.0,0.0,22,0.00,,---,0.00,VWS V13.01,2013-05-04 03:24:00,
2013-05-03 21:29:00,69.8,29.3,25.82,North,0,0.0,0.0,22,0.00,,---,0.00,VWS V13.01,2013-05-04 03:29:00,
2013-05-03 21:34:00,69.8,29.3,25.82,North,0,0.0,0.0,22,0.00,,---,0.00,VWS V13.01,2013-05-04 03:34:00,
2013-05-03 21:39:00,70.0,29.4,25.85,North,0,0.0,0.0,22,0.00,,---,0.00,VWS V13.01,2013-05-04 03:39:00,
2013-05-03 21:44:00,70.0,29.4,25.85,North,0,0.0,0.0,22,0.00,,---,0.00,VWS V13.01,2013-05-04 03:44:00,
2013-05-03 21:49:00,69.8,29.3,25.85,North,0,0.0,0.0,22,0.00,,---,0.00,VWS V13.01,2013-05-04 03:49:00,
2013-05-03 21:54:00,69.6,29.1,25.82,North,0,0.0,0.0,22,0.00,,---,0.00,VWS V13.01,2013-05-04 03:54:00,
2013-05-03 21:59:00,69.8,29.3,25.82,North,0,0.0,0.0,22,0.00,,---,0.00,VWS V13.01,2013-05-04 03:59:00,
2013-05-03 22:01:00,69.8,29.3,25.82,North,0,0.0,0.0,22,0.00,,---,0.00,VWS V13.01,2013-05-04 04:01:00,
2013-05-03 22:02:00,69.8,29.3,25.82,North,0,0.0,0.0,22,0.00,,---,0.00,VWS V13.01,2013-05-04 04:02:00,
2013-05-03 22:03:00,70.0,29.4,25.82,North,0,0.0,0.0,22,0.00,,---,0.00,VWS V13.01,2013-05-04 04:03:00,
2013-05-03 22:08:00,70.0,29.4,25.85,North,0,0.0,0.0,22,0.00,,---,0.00,VWS V13.01,2013-05-04 04:08:00,
2013-05-03 22:13:00,70.0,29.4,25.85,North,0,0.0,0.0,22,0.00,,---,0.00,VWS V13.01,2013-05-04 04:13:00,
2013-05-03 22:18:00,70.2,29.6,25.85,North,0,0.0,0.0,22,0.00,,---,0.00,VWS V13.01,2013-05-04 04:18:00,
2013-05-03 22:24:00,70.2,29.6,25.82,North,0,0.0,0.0,22,0.00,,---,0.00,VWS V13.01,2013-05-04 04:24:00,
2013-05-03 22:29:00,70.2,26.0,25.82,North,0,0.0,0.0,19,0.00,,---,0.00,VWS V13.01,2013-05-04 04:29:00,
2013-05-03 22:34:00,70.2,26.0,25.82,North,0,0.0,0.0,19,0.00,,---,0.00,VWS V13.01,2013-05-04 04:34:00,
2013-05-03 22:39:00,70.3,26.2,25.82,North,0,0.0,0.0,19,0.00,,---,0.00,VWS V13.01,2013-05-04 04:39:00,
2013-05-03 22:44:00,70.2,26.0,25.82,North,0,0.0,0.0,19,0.00,,---,0.00,VWS V13.01,2013-05-04 04:44:00,
2013-05-03 22:49:00,70.2,26.0,25.82,North,0,0.0,0.0,19,0.00,,---,0.00,VWS V13.01,2013-05-04 04:49:00,
2013-05-03 22:54:00,70.2,26.0,25.82,North,0,0.0,0.0,19,0.00,,---,0.00,VWS V13.01,2013-05-04 04:54:00,
2013-05-03 22:59:00,70.3,26.2,25.82,North,0,0.0,0.0,19,0.00,,---,0.00,VWS V13.01,2013-05-04 04:59:00,
2013-05-03 23:04:00,70.7,26.5,25.82,North,0,0.0,0.0,19,0.00,,---,0.00,VWS V13.01,2013-05-04 05:04:00,
2013-05-03 23:09:00,70.7,26.5,25.82,North,0,0.0,0.0,19,0.00,,---,0.00,VWS V13.01,2013-05-04 05:09:00,
2013-05-03 23:14:00,70.9,26.6,25.82,North,0,0.0,0.0,19,0.00,,---,0.00,VWS V13.01,2013-05-04 05:14:00,
2013-05-03 23:19:00,70.9,26.6,25.82,North,0,0.0,0.0,19,0.00,,---,0.00,VWS V13.01,2013-05-04 05:19:00,
2013-05-03 23:24:00,70.3,26.2,25.82,North,0,0.0,0.0,19,0.00,,---,0.00,VWS V13.01,2013-05-04 05:24:00,
2013-05-03 23:29:00,69.8,25.7,25.82,North,0,0.0,0.0,19,0.00,,---,0.00,VWS V13.01,2013-05-04 05:29:00,
2013-05-03 23:34:00,69.3,28.8,25.82,North,0,0.0,0.0,22,0.00,,---,0.00,VWS V13.01,2013-05-04 05:34:00,
2013-05-03 23:39:00,69.1,28.7,25.82,North,0,0.0,0.0,22,0.00,,---,0.00,VWS V13.01,2013-05-04 05:39:00,
2013-05-03 23:44:00,68.7,28.4,25.82,North,0,0.0,0.0,22,0.00,,---,0.00,VWS V13.01,2013-05-04 05:44:00,
2013-05-03 23:49:00,68.5,28.2,25.82,North,0,0.0,0.0,22,0.00,,---,0.00,VWS V13.01,2013-05-04 05:49:00,
2013-05-03 23:54:00,68.2,27.9,25.82,North,0,0.0,0.0,22,0.00,,---,0.00,VWS V13.01,2013-05-04 05:54:00,
2013-05-03 23:59:00,68.0,27.8,25.82,North,0,0.0,0.0,22,0.00,,---,0.00,VWS V13.01,2013-05-04 05:59:00,